Estación Meteorológica Peña el Pijo (Robertgarden) [ 02/02/23 21:39:42 CET ]

Fecha Hora Presion(HPa) Temp (°C) Humedad % Rocio (°C) Viento ( m/s) Direccion Lluvia 1Hora(mm) Lluvia 24H(mm) LLuvia Total(mm)
2010-Nov-14 01:01:13 1004.500 4.9 83 2.2         2.07
2010-Nov-14 02:01:45 1004.000 3.8 84 1.3         2.07
2010-Nov-14 03:01:49 1003.900 2.6 85 0.3         2.07
2010-Nov-14 04:01:44 1003.300 1.9 86 -0.2         2.07
2010-Nov-14 05:04:14 1002.500 1.5 87 -0.5         2.07
2010-Nov-14 06:01:13 1002.400 0.8 87 -1.2         2.07
2010-Nov-14 07:01:13 1002.600 0.4 86 -1.7         2.07
2010-Nov-14 08:01:22 1002.900 -0.1 86 -2.1         2.07
2010-Nov-14 09:01:17 1003.100 1.9 89 0.2         2.07
2010-Nov-14 10:01:13 1002.900 9.2 65 2.9         2.07
2010-Nov-14 11:01:16 1003.200 15.4 43 2.8         2.07
2010-Nov-14 12:01:12 1002.700 17.9 39 3.7         2.07
2010-Nov-14 13:01:12 1002.100 19.4 36 3.8         2.07
2010-Nov-14 14:01:16 1001.700 21.1 30 2.9         2.07
2010-Nov-14 15:01:16 1001.700 18.6 37 3.5         2.07
2010-Nov-14 16:01:14 1002.200 14.9 54 5.7         2.07
2010-Nov-14 17:01:11 1002.400 13.9 59 6.0         2.07
2010-Nov-14 18:01:12 1002.900 12.7 65 6.3         2.07
2010-Nov-14 19:01:13 1003.100 12.1 71 7.0         2.07
2010-Nov-14 20:01:12 1003.400 11.2 75 6.9         2.07
2010-Nov-14 21:01:15 1003.000 10.3 80 7.0         2.07
2010-Nov-14 22:01:13 1003.100 9.9 83 7.1         2.07
2010-Nov-14 23:01:12 1003.500 10.2 77 6.3         2.07

Temperatura Máxima:21°    Temperatura Mínima:
Presión Máxima:1004.500 Hpa    Presión Mínima:1001.700 Hpa


Volver